sensor_id;sensor_type;location;lat;lon;timestamp;pressure;altitude;pressure_sealevel;temperature;humidity
59877;BME280;45749;51.140;17.184;2023-04-05T00:00:35;100774.97;;;1.78;62.48
59877;BME280;45749;51.140;17.184;2023-04-05T00:03:01;100782.56;;;1.86;62.62
59877;BME280;45749;51.140;17.184;2023-04-05T00:05:27;100784.31;;;1.85;62.65
59877;BME280;45749;51.140;17.184;2023-04-05T00:07:56;100781.63;;;1.88;62.73
59877;BME280;45749;51.140;17.184;2023-04-05T00:10:22;100780.97;;;1.80;62.71
59877;BME280;45749;51.140;17.184;2023-04-05T00:12:47;100782.06;;;1.73;63.07
59877;BME280;45749;51.140;17.184;2023-04-05T00:15:15;100789.16;;;1.68;62.99
59877;BME280;45749;51.140;17.184;2023-04-05T00:17:40;100784.03;;;1.65;63.00
59877;BME280;45749;51.140;17.184;2023-04-05T00:20:06;100780.69;;;1.60;63.02
59877;BME280;45749;51.140;17.184;2023-04-05T00:22:32;100782.59;;;1.55;62.65
59877;BME280;45749;51.140;17.184;2023-04-05T00:25:03;100770.63;;;1.48;63.15
59877;BME280;45749;51.140;17.184;2023-04-05T00:27:29;100778.41;;;1.49;63.30
59877;BME280;45749;51.140;17.184;2023-04-05T00:29:55;100771.63;;;1.44;63.10
59877;BME280;45749;51.140;17.184;2023-04-05T00:32:21;100762.44;;;1.30;63.18
59877;BME280;45749;51.140;17.184;2023-04-05T00:34:46;100766.63;;;1.36;63.64
59877;BME280;45749;51.140;17.184;2023-04-05T00:37:12;100761.47;;;1.34;63.07
59877;BME280;45749;51.140;17.184;2023-04-05T00:39:40;100768.59;;;1.28;63.27
59877;BME280;45749;51.140;17.184;2023-04-05T00:42:06;100771.41;;;1.20;63.34
59877;BME280;45749;51.140;17.184;2023-04-05T00:44:33;100761.97;;;1.16;63.74
59877;BME280;45749;51.140;17.184;2023-04-05T00:47:06;100764.81;;;1.07;63.89
59877;BME280;45749;51.140;17.184;2023-04-05T00:49:33;100776.97;;;1.06;64.00
59877;BME280;45749;51.140;17.184;2023-04-05T00:51:59;100763.28;;;1.00;64.09
59877;BME280;45749;51.140;17.184;2023-04-05T00:54:25;100767.72;;;0.94;64.21
59877;BME280;45749;51.140;17.184;2023-04-05T00:56:54;100763.56;;;0.89;64.34
59877;BME280;45749;51.140;17.184;2023-04-05T00:59:20;100765.41;;;0.84;64.39
59877;BME280;45749;51.140;17.184;2023-04-05T01:01:49;100765.63;;;0.76;64.59
59877;BME280;45749;51.140;17.184;2023-04-05T01:04:27;100753.50;;;0.75;65.10
59877;BME280;45749;51.140;17.184;2023-04-05T01:06:59;100754.31;;;0.77;64.93
59877;BME280;45749;51.140;17.184;2023-04-05T01:09:50;100756.84;;;0.80;65.09
59877;BME280;45749;51.140;17.184;2023-04-05T01:12:20;100750.75;;;0.81;65.40
59877;BME280;45749;51.140;17.184;2023-04-05T01:14:50;100746.31;;;0.86;65.32
59877;BME280;45749;51.140;17.184;2023-04-05T01:17:21;100748.91;;;0.86;65.08
59877;BME280;45749;51.140;17.184;2023-04-05T01:19:58;100744.56;;;0.85;65.42
59877;BME280;45749;51.140;17.184;2023-04-05T01:22:38;100744.56;;;0.87;65.49
59877;BME280;45749;51.140;17.184;2023-04-05T01:30:31;100732.72;;;0.75;65.71
59877;BME280;45749;51.140;17.184;2023-04-05T01:35:49;100735.31;;;0.75;66.01
59877;BME280;45749;51.140;17.184;2023-04-05T01:38:17;100739.72;;;0.73;66.03
59877;BME280;45749;51.140;17.184;2023-04-05T01:40:43;100739.81;;;0.68;65.95
59877;BME280;45749;51.140;17.184;2023-04-05T01:43:15;100732.03;;;0.68;65.93
59877;BME280;45749;51.140;17.184;2023-04-05T01:45:42;100726.03;;;0.66;65.77
59877;BME280;45749;51.140;17.184;2023-04-05T01:48:08;100734.69;;;0.67;66.08
59877;BME280;45749;51.140;17.184;2023-04-05T01:50:33;100730.25;;;0.70;66.06
59877;BME280;45749;51.140;17.184;2023-04-05T01:52:58;100731.94;;;0.72;66.28
59877;BME280;45749;51.140;17.184;2023-04-05T01:55:24;100735.53;;;0.67;66.25
59877;BME280;45749;51.140;17.184;2023-04-05T01:57:50;100743.19;;;0.72;66.58
59877;BME280;45749;51.140;17.184;2023-04-05T02:00:16;100729.56;;;0.64;66.59
59877;BME280;45749;51.140;17.184;2023-04-05T02:02:42;100715.88;;;0.56;66.58
59877;BME280;45749;51.140;17.184;2023-04-05T02:05:07;100727.94;;;0.60;66.63
59877;BME280;45749;51.140;17.184;2023-04-05T02:07:33;100726.28;;;0.56;66.74
59877;BME280;45749;51.140;17.184;2023-04-05T02:09:58;100723.66;;;0.57;66.80
59877;BME280;45749;51.140;17.184;2023-04-05T02:12:23;100723.69;;;0.56;66.66
59877;BME280;45749;51.140;17.184;2023-04-05T02:14:49;100719.38;;;0.55;66.86
59877;BME280;45749;51.140;17.184;2023-04-05T02:17:17;100708.19;;;0.53;66.96
59877;BME280;45749;51.140;17.184;2023-04-05T02:19:42;100709.00;;;0.55;66.86
59877;BME280;45749;51.140;17.184;2023-04-05T02:22:10;100707.47;;;0.46;67.09
59877;BME280;45749;51.140;17.184;2023-04-05T02:24:36;100710.00;;;0.49;67.31
59877;BME280;45749;51.140;17.184;2023-04-05T02:27:02;100712.50;;;0.54;67.09
59877;BME280;45749;51.140;17.184;2023-04-05T02:29:27;100712.53;;;0.52;67.42
59877;BME280;45749;51.140;17.184;2023-04-05T02:31:53;100709.13;;;0.50;67.39
59877;BME280;45749;51.140;17.184;2023-04-05T02:34:19;100697.09;;;0.46;67.52
59877;BME280;45749;51.140;17.184;2023-04-05T02:36:44;100689.41;;;0.43;67.33
59877;BME280;45749;51.140;17.184;2023-04-05T02:39:10;100682.47;;;0.43;67.57
59877;BME280;45749;51.140;17.184;2023-04-05T02:41:35;100687.59;;;0.46;67.66
59877;BME280;45749;51.140;17.184;2023-04-05T02:44:01;100682.31;;;0.50;67.73
59877;BME280;45749;51.140;17.184;2023-04-05T02:46:27;100688.59;;;0.39;67.63
59877;BME280;45749;51.140;17.184;2023-04-05T02:48:52;100694.91;;;0.29;67.57
59877;BME280;45749;51.140;17.184;2023-04-05T02:51:17;100691.53;;;0.27;67.74
59877;BME280;45749;51.140;17.184;2023-04-05T02:53:43;100688.09;;;0.25;67.85
59877;BME280;45749;51.140;17.184;2023-04-05T02:56:12;100694.13;;;0.26;68.17
59877;BME280;45749;51.140;17.184;2023-04-05T02:58:39;100692.56;;;0.20;68.27
59877;BME280;45749;51.140;17.184;2023-04-05T03:01:05;100689.16;;;0.18;68.30
59877;BME280;45749;51.140;17.184;2023-04-05T03:03:31;100678.19;;;0.07;68.29
59877;BME280;45749;51.140;17.184;2023-04-05T03:06:00;100678.91;;;0.12;68.12
59877;BME280;45749;51.140;17.184;2023-04-05T03:08:31;100685.00;;;0.11;68.73
59877;BME280;45749;51.140;17.184;2023-04-05T03:10:56;100680.53;;;0.16;68.52
59877;BME280;45749;51.140;17.184;2023-04-05T03:13:22;100674.50;;;0.15;68.61
59877;BME280;45749;51.140;17.184;2023-04-05T03:15:47;100678.00;;;0.14;68.49
59877;BME280;45749;51.140;17.184;2023-04-05T03:18:13;100677.06;;;0.17;68.43
59877;BME280;45749;51.140;17.184;2023-04-05T03:20:38;100677.06;;;0.17;68.76
59877;BME280;45749;51.140;17.184;2023-04-05T03:23:07;100675.41;;;0.13;68.74
59877;BME280;45749;51.140;17.184;2023-04-05T03:25:36;100676.16;;;0.18;68.51
59877;BME280;45749;51.140;17.184;2023-04-05T03:28:05;100678.97;;;0.09;68.58
59877;BME280;45749;51.140;17.184;2023-04-05T03:30:33;100677.41;;;0.02;68.58
59877;BME280;45749;51.140;17.184;2023-04-05T03:32:59;100682.81;;;-0.08;69.01
59877;BME280;45749;51.140;17.184;2023-04-05T03:35:28;100669.97;;;-0.12;69.24
59877;BME280;45749;51.140;17.184;2023-04-05T03:37:54;100674.94;;;-0.03;69.39
59877;BME280;45749;51.140;17.184;2023-04-05T03:40:20;100674.00;;;-0.01;69.26
59877;BME280;45749;51.140;17.184;2023-04-05T03:42:46;100666.34;;;-0.05;69.26
59877;BME280;45749;51.140;17.184;2023-04-05T03:45:12;100678.28;;;0.02;69.18
59877;BME280;45749;51.140;17.184;2023-04-05T03:47:37;100675.59;;;0.05;69.16
59877;BME280;45749;51.140;17.184;2023-04-05T03:50:03;100669.59;;;0.03;69.04
59877;BME280;45749;51.140;17.184;2023-04-05T03:52:29;100673.09;;;0.02;69.30
59877;BME280;45749;51.140;17.184;2023-04-05T03:54:54;100681.56;;;0.10;69.41
59877;BME280;45749;51.140;17.184;2023-04-05T03:57:20;100686.69;;;0.13;69.37
59877;BME280;45749;51.140;17.184;2023-04-05T03:59:45;100691.88;;;0.13;69.18
59877;BME280;45749;51.140;17.184;2023-04-05T04:02:11;100690.03;;;0.17;69.12
59877;BME280;45749;51.140;17.184;2023-04-05T04:04:36;100688.28;;;0.17;69.05
59877;BME280;45749;51.140;17.184;2023-04-05T04:07:02;100688.31;;;0.16;69.01
59877;BME280;45749;51.140;17.184;2023-04-05T04:09:27;100684.16;;;0.09;69.26
59877;BME280;45749;51.140;17.184;2023-04-05T04:11:54;100688.56;;;0.07;69.39
59877;BME280;45749;51.140;17.184;2023-04-05T04:14:23;100691.94;;;0.09;69.40
59877;BME280;45749;51.140;17.184;2023-04-05T04:16:48;100697.25;;;0.04;69.28
59877;BME280;45749;51.140;17.184;2023-04-05T04:19:16;100691.38;;;-0.03;69.64
59877;BME280;45749;51.140;17.184;2023-04-05T04:21:42;100690.47;;;-0.02;69.54
59877;BME280;45749;51.140;17.184;2023-04-05T04:24:09;100693.09;;;-0.03;69.38
59877;BME280;45749;51.140;17.184;2023-04-05T04:26:40;100706.22;;;-0.09;69.71
59877;BME280;45749;51.140;17.184;2023-04-05T04:29:07;100695.00;;;-0.11;69.61
59877;BME280;45749;51.140;17.184;2023-04-05T04:31:32;100699.31;;;-0.10;69.83
59877;BME280;45749;51.140;17.184;2023-04-05T04:33:57;100701.16;;;-0.15;69.82
59877;BME280;45749;51.140;17.184;2023-04-05T04:36:23;100703.81;;;-0.18;70.18
59877;BME280;45749;51.140;17.184;2023-04-05T04:38:52;100713.34;;;-0.19;69.88
59877;BME280;45749;51.140;17.184;2023-04-05T04:41:17;100707.38;;;-0.22;70.35
59877;BME280;45749;51.140;17.184;2023-04-05T04:43:44;100718.47;;;-0.16;70.32
59877;BME280;45749;51.140;17.184;2023-04-05T04:46:09;100723.59;;;-0.13;70.39
59877;BME280;45749;51.140;17.184;2023-04-05T04:48:45;100720.88;;;-0.08;70.50
59877;BME280;45749;51.140;17.184;2023-04-05T04:51:11;100712.13;;;-0.04;70.43
59877;BME280;45749;51.140;17.184;2023-04-05T04:53:37;100704.28;;;0.01;70.41
59877;BME280;45749;51.140;17.184;2023-04-05T04:56:09;100705.91;;;0.05;70.19
59877;BME280;45749;51.140;17.184;2023-04-05T04:58:34;100705.81;;;0.08;70.43
59877;BME280;45749;51.140;17.184;2023-04-05T05:01:00;100705.91;;;0.05;70.07
59877;BME280;45749;51.140;17.184;2023-04-05T05:03:25;100723.28;;;-0.01;70.33
59877;BME280;45749;51.140;17.184;2023-04-05T05:05:51;100720.16;;;-0.15;70.33
59877;BME280;45749;51.140;17.184;2023-04-05T05:08:17;100723.72;;;-0.19;70.93
59877;BME280;45749;51.140;17.184;2023-04-05T05:10:43;100715.94;;;-0.19;70.88
59877;BME280;45749;51.140;17.184;2023-04-05T05:13:09;100726.25;;;-0.16;71.19
59877;BME280;45749;51.140;17.184;2023-04-05T05:15:35;100725.41;;;-0.18;71.43
59877;BME280;45749;51.140;17.184;2023-04-05T05:18:00;100721.03;;;-0.14;71.49
59877;BME280;45749;51.140;17.184;2023-04-05T05:20:27;100717.41;;;-0.07;71.60
59877;BME280;45749;51.140;17.184;2023-04-05T05:22:53;100718.03;;;0.04;71.53
59877;BME280;45749;51.140;17.184;2023-04-05T05:25:19;100727.38;;;0.10;71.63
59877;BME280;45749;51.140;17.184;2023-04-05T05:27:49;100722.91;;;0.16;71.51
59877;BME280;45749;51.140;17.184;2023-04-05T05:30:18;100725.47;;;0.18;71.59
59877;BME280;45749;51.140;17.184;2023-04-05T05:32:44;100723.72;;;0.20;71.82
59877;BME280;45749;51.140;17.184;2023-04-05T05:35:10;100721.84;;;0.25;71.67
59877;BME280;45749;51.140;17.184;2023-04-05T05:37:36;100722.69;;;0.26;71.82
59877;BME280;45749;51.140;17.184;2023-04-05T05:40:01;100725.28;;;0.27;71.81
59877;BME280;45749;51.140;17.184;2023-04-05T05:42:29;100724.38;;;0.28;72.09
59877;BME280;45749;51.140;17.184;2023-04-05T05:44:58;100728.59;;;0.32;72.34
59877;BME280;45749;51.140;17.184;2023-04-05T05:47:24;100726.84;;;0.33;72.42
59877;BME280;45749;51.140;17.184;2023-04-05T05:49:49;100713.78;;;0.36;72.41
59877;BME280;45749;51.140;17.184;2023-04-05T05:52:15;100727.31;;;0.49;72.48
59877;BME280;45749;51.140;17.184;2023-04-05T05:54:41;100722.06;;;0.52;72.46
59877;BME280;45749;51.140;17.184;2023-04-05T05:57:06;100716.78;;;0.55;72.34
59877;BME280;45749;51.140;17.184;2023-04-05T05:59:31;100717.50;;;0.61;72.17
59877;BME280;45749;51.140;17.184;2023-04-05T06:01:57;100726.81;;;0.68;72.39
59877;BME280;45749;51.140;17.184;2023-04-05T06:04:22;100720.56;;;0.77;72.66
59877;BME280;45749;51.140;17.184;2023-04-05T06:06:48;100711.69;;;0.84;72.48
59877;BME280;45749;51.140;17.184;2023-04-05T06:09:14;100719.97;;;0.99;72.18
59877;BME280;45749;51.140;17.184;2023-04-05T06:11:41;100718.94;;;1.06;72.24
59877;BME280;45749;51.140;17.184;2023-04-05T06:14:07;100718.81;;;1.10;71.83
59877;BME280;45749;51.140;17.184;2023-04-05T06:16:32;100717.78;;;1.16;72.11
59877;BME280;45749;51.140;17.184;2023-04-05T06:18:59;100713.44;;;1.16;71.85
59877;BME280;45749;51.140;17.184;2023-04-05T06:21:25;100727.13;;;1.23;71.50
59877;BME280;45749;51.140;17.184;2023-04-05T06:23:51;100718.16;;;1.33;72.09
59877;BME280;45749;51.140;17.184;2023-04-05T06:26:18;100723.81;;;1.48;72.57
59877;BME280;45749;51.140;17.184;2023-04-05T06:28:45;100707.91;;;1.58;72.29
59877;BME280;45749;51.140;17.184;2023-04-05T06:31:12;100711.09;;;1.68;71.83
59877;BME280;45749;51.140;17.184;2023-04-05T06:33:39;100711.81;;;1.73;71.78
59877;BME280;45749;51.140;17.184;2023-04-05T06:36:05;100705.50;;;1.80;71.52
59877;BME280;45749;51.140;17.184;2023-04-05T06:38:32;100708.09;;;1.80;71.08
59877;BME280;45749;51.140;17.184;2023-04-05T06:40:57;100708.03;;;1.83;71.65
59877;BME280;45749;51.140;17.184;2023-04-05T06:43:23;100718.16;;;1.93;71.65
59877;BME280;45749;51.140;17.184;2023-04-05T06:45:48;100706.84;;;1.94;71.51
59877;BME280;45749;51.140;17.184;2023-04-05T06:48:14;100719.63;;;2.01;71.68
59877;BME280;45749;51.140;17.184;2023-04-05T06:50:39;100713.34;;;2.07;71.29
59877;BME280;45749;51.140;17.184;2023-04-05T06:53:05;100718.44;;;2.11;71.29
59877;BME280;45749;51.140;17.184;2023-04-05T06:55:31;100718.19;;;2.19;71.35
59877;BME280;45749;51.140;17.184;2023-04-05T06:57:56;100716.22;;;2.27;71.30
59877;BME280;45749;51.140;17.184;2023-04-05T07:00:22;100722.00;;;2.35;71.28
59877;BME280;45749;51.140;17.184;2023-04-05T07:02:48;100725.22;;;2.44;71.14
59877;BME280;45749;51.140;17.184;2023-04-05T07:05:13;100721.34;;;2.55;71.10
59877;BME280;45749;51.140;17.184;2023-04-05T07:07:40;100718.56;;;2.62;70.57
59877;BME280;45749;51.140;17.184;2023-04-05T07:10:07;100726.25;;;2.65;70.42
59877;BME280;45749;51.140;17.184;2023-04-05T07:12:33;100719.09;;;2.71;70.29
59877;BME280;45749;51.140;17.184;2023-04-05T07:14:59;100721.59;;;2.74;70.30
59877;BME280;45749;51.140;17.184;2023-04-05T07:17:24;100729.31;;;2.77;70.76
59877;BME280;45749;51.140;17.184;2023-04-05T07:19:50;100738.81;;;2.78;70.62
59877;BME280;45749;51.140;17.184;2023-04-05T07:22:15;100732.59;;;2.82;70.93
59877;BME280;45749;51.140;17.184;2023-04-05T07:24:41;100735.19;;;2.82;71.01
59877;BME280;45749;51.140;17.184;2023-04-05T07:27:06;100727.28;;;2.86;70.88
59877;BME280;45749;51.140;17.184;2023-04-05T07:29:32;100724.78;;;2.82;70.67
59877;BME280;45749;51.140;17.184;2023-04-05T07:32:02;100738.44;;;2.89;71.26
59877;BME280;45749;51.140;17.184;2023-04-05T07:34:28;100737.47;;;2.93;70.51
59877;BME280;45749;51.140;17.184;2023-04-05T07:36:53;100741.69;;;2.96;71.06
59877;BME280;45749;51.140;17.184;2023-04-05T07:39:18;100734.78;;;2.95;70.79
59877;BME280;45749;51.140;17.184;2023-04-05T07:41:45;100741.59;;;2.99;71.21
59877;BME280;45749;51.140;17.184;2023-04-05T07:44:10;100731.97;;;3.01;71.16
59877;BME280;45749;51.140;17.184;2023-04-05T07:46:36;100732.63;;;3.08;71.50
59877;BME280;45749;51.140;17.184;2023-04-05T07:49:02;100716.50;;;2.96;70.99
59877;BME280;45749;51.140;17.184;2023-04-05T07:51:28;100731.13;;;3.00;71.91
59877;BME280;45749;51.140;17.184;2023-04-05T07:53:53;100727.13;;;3.15;72.52
59877;BME280;45749;51.140;17.184;2023-04-05T07:56:18;100730.22;;;3.26;72.20
59877;BME280;45749;51.140;17.184;2023-04-05T07:58:44;100734.34;;;3.32;71.84
59877;BME280;45749;51.140;17.184;2023-04-05T08:01:10;100735.84;;;3.39;72.41
59877;BME280;45749;51.140;17.184;2023-04-05T08:03:36;100728.06;;;3.38;71.83
59877;BME280;45749;51.140;17.184;2023-04-05T08:06:15;100734.13;;;3.38;71.55
59877;BME280;45749;51.140;17.184;2023-04-05T08:08:44;100731.13;;;3.49;72.47
59877;BME280;45749;51.140;17.184;2023-04-05T08:11:10;100721.84;;;3.65;72.79
59877;BME280;45749;51.140;17.184;2023-04-05T08:13:35;100732.00;;;3.71;71.75
59877;BME280;45749;51.140;17.184;2023-04-05T08:16:03;100720.84;;;3.68;71.67
59877;BME280;45749;51.140;17.184;2023-04-05T08:18:28;100723.53;;;3.66;71.59
59877;BME280;45749;51.140;17.184;2023-04-05T08:20:54;100716.47;;;3.68;71.93
59877;BME280;45749;51.140;17.184;2023-04-05T08:23:20;100716.25;;;3.74;72.32
59877;BME280;45749;51.140;17.184;2023-04-05T08:25:46;100714.44;;;3.76;72.07
59877;BME280;45749;51.140;17.184;2023-04-05T08:28:12;100714.97;;;3.85;71.55
59877;BME280;45749;51.140;17.184;2023-04-05T08:30:38;100718.34;;;3.88;72.08
59877;BME280;45749;51.140;17.184;2023-04-05T08:33:03;100718.69;;;4.01;70.95
59877;BME280;45749;51.140;17.184;2023-04-05T08:35:29;100706.56;;;4.00;71.16
59877;BME280;45749;51.140;17.184;2023-04-05T08:37:55;100709.72;;;4.08;71.37
59877;BME280;45749;51.140;17.184;2023-04-05T08:40:28;100708.25;;;4.23;71.26
59877;BME280;45749;51.140;17.184;2023-04-05T08:43:04;100709.53;;;4.35;70.68
59877;BME280;45749;51.140;17.184;2023-04-05T08:45:33;100711.03;;;4.40;69.95
59877;BME280;45749;51.140;17.184;2023-04-05T08:48:00;100714.44;;;4.42;68.67
59877;BME280;45749;51.140;17.184;2023-04-05T08:50:26;100709.13;;;4.44;69.83
59877;BME280;45749;51.140;17.184;2023-04-05T08:52:52;100704.84;;;4.63;69.56
59877;BME280;45749;51.140;17.184;2023-04-05T08:55:17;100706.69;;;4.82;70.73
59877;BME280;45749;51.140;17.184;2023-04-05T08:57:48;100687.34;;;4.86;68.88
59877;BME280;45749;51.140;17.184;2023-04-05T09:00:15;100706.53;;;5.05;69.40
59877;BME280;45749;51.140;17.184;2023-04-05T09:02:49;100711.31;;;5.16;68.36
59877;BME280;45749;51.140;17.184;2023-04-05T09:05:18;100707.16;;;5.31;68.76
59877;BME280;45749;51.140;17.184;2023-04-05T09:07:45;100694.16;;;5.48;68.57
59877;BME280;45749;51.140;17.184;2023-04-05T09:10:12;100691.75;;;5.62;69.38
59877;BME280;45749;51.140;17.184;2023-04-05T09:12:39;100698.72;;;5.82;68.17
59877;BME280;45749;51.140;17.184;2023-04-05T09:15:06;100701.09;;;5.87;67.09
59877;BME280;45749;51.140;17.184;2023-04-05T09:17:32;100691.13;;;5.76;66.35
59877;BME280;45749;51.140;17.184;2023-04-05T09:19:58;100688.38;;;5.79;65.51
59877;BME280;45749;51.140;17.184;2023-04-05T09:22:24;100690.91;;;5.81;67.01
59877;BME280;45749;51.140;17.184;2023-04-05T09:24:49;100696.56;;;5.91;65.79
59877;BME280;45749;51.140;17.184;2023-04-05T09:27:16;100694.03;;;5.89;64.60
59877;BME280;45749;51.140;17.184;2023-04-05T09:29:45;100691.56;;;5.86;65.68
59877;BME280;45749;51.140;17.184;2023-04-05T09:32:11;100680.00;;;5.90;65.74
59877;BME280;45749;51.140;17.184;2023-04-05T09:34:38;100684.19;;;5.94;66.17
59877;BME280;45749;51.140;17.184;2023-04-05T09:37:15;100688.16;;;6.03;66.01
59877;BME280;45749;51.140;17.184;2023-04-05T09:39:42;100686.84;;;6.11;65.43
59877;BME280;45749;51.140;17.184;2023-04-05T09:42:12;100685.00;;;6.14;64.80
59877;BME280;45749;51.140;17.184;2023-04-05T09:44:58;100689.28;;;6.16;64.39
59877;BME280;45749;51.140;17.184;2023-04-05T09:47:30;100679.34;;;6.23;64.70
59877;BME280;45749;51.140;17.184;2023-04-05T09:50:02;100687.91;;;6.26;64.72
59877;BME280;45749;51.140;17.184;2023-04-05T09:52:31;100684.13;;;6.32;63.58
59877;BME280;45749;51.140;17.184;2023-04-05T09:55:04;100680.63;;;6.31;63.88
59877;BME280;45749;51.140;17.184;2023-04-05T09:57:36;100686.50;;;6.37;63.71
59877;BME280;45749;51.140;17.184;2023-04-05T10:00:03;100681.19;;;6.38;63.29
59877;BME280;45749;51.140;17.184;2023-04-05T10:02:34;100679.81;;;6.48;63.30
59877;BME280;45749;51.140;17.184;2023-04-05T10:05:05;100678.75;;;6.52;63.06
59877;BME280;45749;51.140;17.184;2023-04-05T10:07:31;100678.50;;;6.57;63.27
59877;BME280;45749;51.140;17.184;2023-04-05T10:09:58;100680.03;;;6.61;62.72
59877;BME280;45749;51.140;17.184;2023-04-05T10:12:24;100680.56;;;6.68;63.08
59877;BME280;45749;51.140;17.184;2023-04-05T10:14:56;100664.94;;;6.66;62.52
59877;BME280;45749;51.140;17.184;2023-04-05T10:17:35;100664.53;;;6.74;63.04
59877;BME280;45749;51.140;17.184;2023-04-05T10:20:14;100665.59;;;6.87;62.40
59877;BME280;45749;51.140;17.184;2023-04-05T10:25:40;100665.00;;;6.82;62.11
59877;BME280;45749;51.140;17.184;2023-04-05T10:28:21;100657.34;;;6.95;62.54
59877;BME280;45749;51.140;17.184;2023-04-05T10:30:56;100655.84;;;7.07;62.75
59877;BME280;45749;51.140;17.184;2023-04-05T10:33:39;100660.84;;;7.11;62.26
59877;BME280;45749;51.140;17.184;2023-04-05T10:39:02;100647.38;;;7.50;62.34
59877;BME280;45749;51.140;17.184;2023-04-05T10:41:37;100647.72;;;7.60;61.51
59877;BME280;45749;51.140;17.184;2023-04-05T10:44:04;100635.81;;;7.53;60.93
59877;BME280;45749;51.140;17.184;2023-04-05T10:46:33;100635.09;;;7.51;60.81
59877;BME280;45749;51.140;17.184;2023-04-05T10:49:11;100634.91;;;7.38;60.38
59877;BME280;45749;51.140;17.184;2023-04-05T10:51:37;100631.66;;;7.33;60.52
59877;BME280;45749;51.140;17.184;2023-04-05T10:54:06;100628.63;;;7.25;60.75
59877;BME280;45749;51.140;17.184;2023-04-05T10:56:32;100641.97;;;7.20;59.91
59877;BME280;45749;51.140;17.184;2023-04-05T10:58:58;100634.97;;;7.21;60.52
59877;BME280;45749;51.140;17.184;2023-04-05T11:01:24;100635.88;;;7.20;59.90
59877;BME280;45749;51.140;17.184;2023-04-05T11:03:51;100629.88;;;7.18;60.40
59877;BME280;45749;51.140;17.184;2023-04-05T11:08:46;100633.09;;;7.23;59.97
59877;BME280;45749;51.140;17.184;2023-04-05T11:11:15;100638.94;;;7.28;60.40
59877;BME280;45749;51.140;17.184;2023-04-05T11:13:52;100636.69;;;7.38;60.01
59877;BME280;45749;51.140;17.184;2023-04-05T11:16:18;100640.00;;;7.41;59.79
59877;BME280;45749;51.140;17.184;2023-04-05T11:18:45;100631.91;;;7.28;59.36
59877;BME280;45749;51.140;17.184;2023-04-05T11:21:19;100637.06;;;7.30;59.83
59877;BME280;45749;51.140;17.184;2023-04-05T11:24:07;100631.09;;;7.28;59.74
59877;BME280;45749;51.140;17.184;2023-04-05T11:29:05;100627.00;;;7.22;59.25
59877;BME280;45749;51.140;17.184;2023-04-05T11:31:31;100632.59;;;7.32;60.08
59877;BME280;45749;51.140;17.184;2023-04-05T11:34:02;100635.84;;;7.37;59.96
59877;BME280;45749;51.140;17.184;2023-04-05T11:36:44;100630.25;;;7.27;59.38
59877;BME280;45749;51.140;17.184;2023-04-05T11:44:13;100629.19;;;7.14;60.28
59877;BME280;45749;51.140;17.184;2023-04-05T11:46:46;100618.34;;;7.20;60.78
59877;BME280;45749;51.140;17.184;2023-04-05T11:49:13;100621.84;;;7.21;60.34
59877;BME280;45749;51.140;17.184;2023-04-05T11:51:42;100625.88;;;7.11;60.21
59877;BME280;45749;51.140;17.184;2023-04-05T11:54:11;100619.63;;;7.13;60.72
59877;BME280;45749;51.140;17.184;2023-04-05T11:56:37;100617.94;;;7.28;60.75
59877;BME280;45749;51.140;17.184;2023-04-05T11:59:02;100609.50;;;7.39;60.36
59877;BME280;45749;51.140;17.184;2023-04-05T12:01:28;100620.66;;;7.42;60.88
59877;BME280;45749;51.140;17.184;2023-04-05T12:03:55;100622.44;;;7.42;60.84
59877;BME280;45749;51.140;17.184;2023-04-05T12:06:22;100617.63;;;7.34;60.43
59877;BME280;45749;51.140;17.184;2023-04-05T12:08:48;100618.63;;;7.32;60.70
59877;BME280;45749;51.140;17.184;2023-04-05T12:11:30;100611.25;;;7.22;60.78
59877;BME280;45749;51.140;17.184;2023-04-05T12:14:00;100615.31;;;7.28;60.91
59877;BME280;45749;51.140;17.184;2023-04-05T12:16:26;100614.91;;;7.36;61.03
59877;BME280;45749;51.140;17.184;2023-04-05T12:18:53;100611.44;;;7.35;60.40
59877;BME280;45749;51.140;17.184;2023-04-05T12:21:20;100610.00;;;7.45;61.04
59877;BME280;45749;51.140;17.184;2023-04-05T12:23:46;100608.56;;;7.56;60.18
59877;BME280;45749;51.140;17.184;2023-04-05T12:26:13;100605.75;;;7.59;60.69
59877;BME280;45749;51.140;17.184;2023-04-05T12:28:52;100598.97;;;7.70;60.90
59877;BME280;45749;51.140;17.184;2023-04-05T12:31:37;100598.19;;;7.84;60.91
59877;BME280;45749;51.140;17.184;2023-04-05T12:34:03;100597.34;;;7.99;60.08
59877;BME280;45749;51.140;17.184;2023-04-05T12:36:29;100594.25;;;8.07;59.98
59877;BME280;45749;51.140;17.184;2023-04-05T12:38:58;100586.09;;;8.12;59.55
59877;BME280;45749;51.140;17.184;2023-04-05T12:41:30;100585.44;;;8.08;60.17
59877;BME280;45749;51.140;17.184;2023-04-05T12:43:56;100591.28;;;8.13;59.97
59877;BME280;45749;51.140;17.184;2023-04-05T12:46:42;100593.09;;;8.27;59.78
59877;BME280;45749;51.140;17.184;2023-04-05T12:49:12;100590.63;;;8.24;59.30
59877;BME280;45749;51.140;17.184;2023-04-05T12:51:44;100597.50;;;8.27;58.75
59877;BME280;45749;51.140;17.184;2023-04-05T12:54:14;100604.13;;;8.18;59.04
59877;BME280;45749;51.140;17.184;2023-04-05T12:56:44;100599.50;;;8.07;59.50
59877;BME280;45749;51.140;17.184;2023-04-05T12:59:09;100610.22;;;7.88;60.44
59877;BME280;45749;51.140;17.184;2023-04-05T13:01:36;100601.84;;;7.66;61.95
59877;BME280;45749;51.140;17.184;2023-04-05T13:04:02;100599.41;;;7.63;62.53
59877;BME280;45749;51.140;17.184;2023-04-05T13:06:29;100603.41;;;7.54;62.96
59877;BME280;45749;51.140;17.184;2023-04-05T13:08:55;100603.91;;;7.61;63.28
59877;BME280;45749;51.140;17.184;2023-04-05T13:11:21;100613.88;;;7.70;64.11
59877;BME280;45749;51.140;17.184;2023-04-05T13:13:47;100614.97;;;7.82;63.98
59877;BME280;45749;51.140;17.184;2023-04-05T13:16:12;100615.31;;;7.91;63.89